Time;durP1;ratioP1;P1;durP2;ratioP2;P2;SDS_P1;SDS_P2;PMS_P1;PMS_P2;Temp;Humidity;BMP_temperature;BMP_pressure;BME280_temperature;BME280_humidity;BME280_pressure;Samples;Min_cycle;Max_cycle;Signal;HPM_P1;HPM_P2
2021/09/25 00:05:12;;;;;;;10.50;7.10;;;;;;;11.27;77.26;99186.23;477044;1190;142078;-59
2021/09/25 00:15:21;;;;;;;9.90;7.20;;;;;;;11.36;77.52;99192.58;470108;1190;142077;-58
2021/09/25 00:25:25;;;;;;;;;;;;;;;11.47;77.73;99188.14;461650;1190;142093;-58
2021/09/25 00:35:31;;;;;;;7.60;5.80;;;;;;;11.57;78.01;99189.66;461649;1190;132080;-58
2021/09/25 00:45:36;;;;;;;6.50;4.20;;;;;;;11.69;78.23;99189.14;466406;1191;141269;-58
2021/09/25 00:55:43;;;;;;;8.10;4.60;;;;;;;11.84;78.43;99188.19;467839;1191;142944;-58
2021/09/25 01:05:48;;;;;;;7.40;5.00;;;;;;;11.98;78.37;99178.52;465451;1191;142193;-58
2021/09/25 01:15:54;;;;;;;8.40;3.70;;;;;;;12.09;78.37;99168.06;469859;1191;143222;-59
2021/09/25 01:26:01;;;;;;;9.20;5.70;;;;;;;12.20;78.35;99176.02;477844;1190;141289;-59
2021/09/25 01:36:07;;;;;;;8.20;5.10;;;;;;;12.32;78.16;99180.21;477849;1190;140777;-59
2021/09/25 01:46:13;;;;;;;6.70;5.10;;;;;;;12.41;78.17;99185.08;477361;1191;141562;-59
2021/09/25 01:56:19;;;;;;;7.60;6.00;;;;;;;12.49;78.10;99180.25;473045;1191;142169;-57
2021/09/25 02:06:24;;;;;;;4.60;4.10;;;;;;;12.55;78.11;99189.66;473387;1189;141811;-60
2021/09/25 02:16:31;;;;;;;8.20;6.80;;;;;;;12.54;78.07;99176.90;468337;1190;140712;-58
2021/09/25 02:26:38;;;;;;;8.90;6.80;;;;;;;12.52;78.18;99174.10;464223;1190;141099;-59
2021/09/25 02:36:44;;;;;;;8.80;5.20;;;;;;;12.52;78.29;99173.33;463364;1191;142300;-58
2021/09/25 02:46:50;;;;;;;18.10;6.40;;;;;;;12.54;78.33;99170.92;461365;1192;141211;-58
2021/09/25 02:56:55;;;;;;;8.90;6.30;;;;;;;12.58;78.44;99171.28;471367;1191;142939;-59
2021/09/25 03:07:02;;;;;;;7.80;6.90;;;;;;;12.60;78.52;99177.27;467932;1190;143020;-59
2021/09/25 03:17:08;;;;;;;6.90;6.20;;;;;;;12.66;78.62;99183.33;475509;1190;151267;-59
2021/09/25 03:27:14;;;;;;;7.30;6.20;;;;;;;12.73;78.67;99189.48;469752;1191;141841;-59
2021/09/25 03:37:20;;;;;;;5.00;4.30;;;;;;;12.79;78.67;99185.10;464139;1191;141128;-59
2021/09/25 03:47:26;;;;;;;7.70;6.10;;;;;;;12.81;78.70;99181.81;463208;1191;162166;-59
2021/09/25 03:57:32;;;;;;;7.80;5.90;;;;;;;12.84;78.75;99180.35;462281;1191;140940;-58
2021/09/25 04:07:38;;;;;;;7.10;6.40;;;;;;;12.84;78.82;99180.49;466616;1177;140554;-58
2021/09/25 04:17:45;;;;;;;8.00;6.20;;;;;;;12.83;78.99;99183.79;460921;1191;142135;-60
2021/09/25 04:27:51;;;;;;;10.60;8.20;;;;;;;12.85;79.20;99182.91;460576;1192;142020;-58
2021/09/25 04:37:57;;;;;;;10.60;7.20;;;;;;;12.93;79.28;99184.41;477757;1190;141796;-59
2021/09/25 04:48:04;;;;;;;12.70;8.10;;;;;;;13.01;79.24;99189.84;477587;1190;142280;-59
2021/09/25 04:58:10;;;;;;;10.60;9.20;;;;;;;13.10;79.25;99191.97;476136;1191;141354;-59
2021/09/25 05:08:16;;;;;;;9.80;8.70;;;;;;;13.23;79.28;99195.81;460419;1178;141355;-58
2021/09/25 05:18:24;;;;;;;10.90;8.50;;;;;;;13.37;79.38;99201.24;462189;1190;142884;-57
2021/09/25 05:28:30;;;;;;;12.00;8.50;;;;;;;13.50;79.24;99207.36;470728;1190;142219;-57
2021/09/25 05:38:36;;;;;;;10.40;9.30;;;;;;;13.67;79.20;99211.63;459816;1192;142429;-58
2021/09/25 05:48:41;;;;;;;10.50;9.40;;;;;;;13.80;79.10;99220.04;459871;1191;141414;-57
2021/09/25 05:58:47;;;;;;;9.80;8.30;;;;;;;13.94;78.91;99230.67;464469;1191;142181;-60
2021/09/25 06:08:53;;;;;;;10.20;7.90;;;;;;;14.11;78.76;99234.23;476869;1190;141973;-59
2021/09/25 06:18:59;;;;;;;10.30;7.80;;;;;;;14.31;78.52;99235.87;477852;1190;143277;-59
2021/09/25 06:29:05;;;;;;;10.70;8.20;;;;;;;14.58;78.20;99233.42;473342;1190;141235;-57
2021/09/25 06:39:11;;;;;;;12.90;8.30;;;;;;;14.86;77.84;99239.33;463791;1190;141410;-58
2021/09/25 06:49:16;;;;;;;11.00;8.80;;;;;;;15.05;77.48;99245.42;474777;1190;141337;-59
2021/09/25 06:59:22;;;;;;;10.00;8.50;;;;;;;15.26;77.13;99247.09;477017;1190;143239;-59
2021/09/25 07:09:28;;;;;;;8.90;7.70;;;;;;;15.63;76.77;99242.19;460843;1192;142388;-61
2021/09/25 07:19:34;;;;;;;10.90;7.60;;;;;;;16.28;75.91;99247.30;477804;1190;142057;-59
2021/09/25 07:29:39;;;;;;;8.70;7.80;;;;;;;16.48;74.86;99260.23;475667;1190;141830;-58
2021/09/25 07:39:46;;;;;;;8.10;7.30;;;;;;;16.72;74.61;99270.14;464543;1190;141021;-58
2021/09/25 07:49:52;;;;;;;8.90;8.00;;;;;;;16.93;73.85;99274.36;471236;1190;141247;-58
2021/09/25 07:59:58;;;;;;;9.30;8.00;;;;;;;17.10;73.47;99283.10;474787;1190;141354;-59
2021/09/25 08:10:05;;;;;;;9.20;8.30;;;;;;;17.65;72.83;99290.11;469649;1190;143523;-59
2021/09/25 08:20:13;;;;;;;8.60;7.70;;;;;;;17.97;71.71;99300.50;477015;1189;143130;-58
2021/09/25 08:30:20;;;;;;;8.30;7.50;;;;;;;17.89;71.28;99306.45;477656;1191;143398;-60
2021/09/25 08:40:26;;;;;;;9.50;8.60;;;;;;;17.99;71.12;99310.90;474228;1191;141622;-59
2021/09/25 08:50:33;;;;;;;10.80;8.20;;;;;;;17.84;70.84;99313.77;470590;1191;141681;-60
2021/09/25 09:00:43;;;;;;;9.50;8.30;;;;;;;17.65;70.83;99323.98;472464;1191;141623;-59
2021/09/25 09:10:50;;;;;;;11.30;8.50;;;;;;;17.66;71.18;99330.96;463355;1190;141287;-58
2021/09/25 09:21:15;;;;;;;10.20;9.30;;;;;;;17.86;70.85;99333.95;461996;1190;142288;-57
2021/09/25 09:31:22;;;;;;;10.00;9.10;;;;;;;17.77;70.74;99330.02;463977;1188;182831;-61
2021/09/25 09:41:31;;;;;;;10.60;9.30;;;;;;;17.68;70.75;99332.64;465723;1191;142279;-60
2021/09/25 09:51:40;;;;;;;12.10;10.40;;;;;;;17.94;70.62;99330.92;462333;1192;143202;-59
2021/09/25 10:01:46;;;;;;;10.20;9.20;;;;;;;18.15;70.11;99335.91;477718;1190;141986;-60
2021/09/25 10:11:55;;;;;;;11.40;9.50;;;;;;;18.18;69.92;99336.90;468028;1191;143260;-60
2021/09/25 10:22:07;;;;;;;10.00;9.20;;;;;;;17.96;69.93;99350.64;477842;1190;143192;-61
2021/09/25 10:32:25;;;;;;;9.90;9.00;;;;;;;18.14;70.13;99349.63;477007;1190;141733;-60
2021/09/25 10:42:47;;;;;;;9.50;8.40;;;;;;;19.31;68.90;99355.36;464789;1192;140734;-58
2021/09/25 10:53:06;;;;;;;9.50;8.50;;;;;;;19.48;67.60;99361.15;477731;1191;142183;-59
2021/09/25 11:03:11;;;;;;;9.20;8.00;;;;;;;18.91;67.92;99365.55;477788;1190;143794;-59
2021/09/25 11:13:38;;;;;;;9.60;8.40;;;;;;;19.30;68.05;99362.77;475750;1191;141406;-59
2021/09/25 11:23:46;;;;;;;9.50;8.60;;;;;;;19.52;67.02;99370.44;476972;1191;142619;-60
2021/09/25 11:33:50;;;;;;;;;;;;;;;18.86;68.42;99387.45;471949;1191;141549;-60
2021/09/25 11:43:59;;;;;;;11.30;10.30;;;;;;;19.41;69.16;99379.23;470447;1191;127608;-58
2021/09/25 11:54:05;;;;;;;9.90;9.00;;;;;;;19.67;68.15;99386.09;471976;1191;198553;-59
2021/09/25 12:04:11;;;;;;;10.10;9.30;;;;;;;18.50;69.34;99400.84;473257;1190;141839;-59
2021/09/25 12:14:17;;;;;;;11.20;9.90;;;;;;;18.06;70.60;99416.84;472228;1191;141374;-59
2021/09/25 12:24:23;;;;;;;8.50;7.80;;;;;;;18.00;71.27;99418.87;477807;1190;142882;-60
2021/09/25 12:34:29;;;;;;;9.80;8.90;;;;;;;18.86;70.90;99424.52;477769;1190;142587;-60
2021/09/25 12:44:39;;;;;;;8.00;7.40;;;;;;;19.23;70.05;99424.18;477085;1190;141993;-60
2021/09/25 12:54:47;;;;;;;8.30;7.50;;;;;;;19.47;69.27;99424.77;477268;1191;141607;-59
2021/09/25 13:04:57;;;;;;;6.10;5.50;;;;;;;19.32;68.86;99429.81;468263;1192;141221;-58
2021/09/25 13:15:06;;;;;;;8.40;5.10;;;;;;;18.81;68.95;99431.05;477027;1190;143515;-59
2021/09/25 13:25:13;;;;;;;5.10;4.50;;;;;;;18.51;68.95;99435.16;473860;1190;142928;-60
2021/09/25 13:35:19;;;;;;;4.80;4.30;;;;;;;18.17;69.21;99440.04;464074;1176;141884;-58
2021/09/25 13:45:25;;;;;;;5.60;4.00;;;;;;;17.78;69.85;99442.57;473162;1190;141456;-59
2021/09/25 13:55:31;;;;;;;3.90;3.50;;;;;;;17.58;70.22;99448.55;467368;1190;142833;-60
2021/09/25 14:05:36;;;;;;;5.90;3.90;;;;;;;17.41;70.57;99448.35;476547;1191;142889;-61
2021/09/25 14:15:42;;;;;;;6.60;5.90;;;;;;;17.37;70.88;99453.14;477628;1191;141566;-59
2021/09/25 14:25:48;;;;;;;6.80;6.10;;;;;;;17.30;71.14;99464.61;468886;1191;142103;-58
2021/09/25 14:35:53;;;;;;;6.60;5.40;;;;;;;17.27;71.59;99466.80;473846;1189;141876;-59
2021/09/25 14:45:59;;;;;;;5.80;5.30;;;;;;;17.48;71.76;99476.88;462072;1190;141882;-60
2021/09/25 14:56:07;;;;;;;7.40;4.90;;;;;;;17.62;71.63;99486.67;465367;1190;142998;-58
2021/09/25 15:06:13;;;;;;;5.30;4.20;;;;;;;17.66;71.67;99493.09;477863;1190;141615;-59
2021/09/25 15:16:19;;;;;;;4.70;4.30;;;;;;;17.64;71.68;99494.55;477889;1190;141314;-59
2021/09/25 15:26:25;;;;;;;6.00;5.40;;;;;;;17.55;71.97;99498.86;475578;1190;141997;-59
2021/09/25 15:36:31;;;;;;;5.50;5.10;;;;;;;17.45;72.23;99500.88;473510;1190;141722;-59
2021/09/25 15:46:37;;;;;;;6.70;5.90;;;;;;;17.25;72.19;99506.87;477708;1190;142118;-59
2021/09/25 15:56:43;;;;;;;12.40;6.50;;;;;;;17.03;72.51;99512.86;477041;1190;144022;-58
2021/09/25 16:06:50;;;;;;;7.30;5.70;;;;;;;16.93;72.77;99531.86;476755;1190;142271;-59
2021/09/25 16:16:58;;;;;;;7.00;6.30;;;;;;;16.80;73.36;99535.77;471064;1190;142218;-60
2021/09/25 16:27:05;;;;;;;7.30;6.00;;;;;;;16.69;73.80;99543.04;476985;1190;141733;-60
2021/09/25 16:37:11;;;;;;;7.60;6.80;;;;;;;16.56;74.35;99556.88;477378;1192;142218;-59
2021/09/25 16:47:17;;;;;;;7.10;6.20;;;;;;;16.47;74.70;99572.00;460483;1191;141896;-59
2021/09/25 16:57:23;;;;;;;8.10;7.20;;;;;;;16.35;75.12;99582.05;467835;1190;141889;-59
2021/09/25 17:07:29;;;;;;;7.50;6.80;;;;;;;16.22;75.57;99583.21;477562;1191;141587;-59
2021/09/25 17:17:36;;;;;;;9.20;8.20;;;;;;;16.16;75.91;99587.40;469985;1191;142914;-58
2021/09/25 17:27:42;;;;;;;11.10;9.40;;;;;;;16.11;76.23;99592.08;477216;1191;141348;-59
2021/09/25 17:37:48;;;;;;;11.70;10.30;;;;;;;16.06;76.57;99607.16;473021;1191;141916;-59
2021/09/25 17:47:54;;;;;;;10.50;8.70;;;;;;;16.02;76.75;99616.02;472915;1190;142349;-59
2021/09/25 17:58:01;;;;;;;8.80;8.00;;;;;;;16.03;76.76;99620.17;477782;1189;141532;-59
2021/09/25 18:08:07;;;;;;;11.20;9.50;;;;;;;16.02;76.95;99633.27;472225;1190;141711;-57
2021/09/25 18:18:13;;;;;;;13.30;10.80;;;;;;;16.00;77.21;99635.10;477871;1183;143113;-59
2021/09/25 18:28:19;;;;;;;19.30;12.10;;;;;;;15.94;77.47;99645.92;477842;1190;142809;-59
2021/09/25 18:38:25;;;;;;;13.20;10.80;;;;;;;15.91;77.55;99650.41;476535;1191;143415;-59
2021/09/25 18:48:31;;;;;;;12.80;10.40;;;;;;;15.81;77.79;99653.76;477293;1190;145683;-60
2021/09/25 18:58:37;;;;;;;12.90;10.50;;;;;;;15.71;78.03;99665.38;467412;1191;142508;-57
2021/09/25 19:08:43;;;;;;;11.50;9.30;;;;;;;15.65;78.19;99666.90;458641;1190;10001950;-64
2021/09/25 19:18:50;;;;;;;12.10;9.70;;;;;;;15.60;78.41;99674.94;463421;1190;141498;-64
2021/09/25 19:28:55;;;;;;;11.40;10.20;;;;;;;15.55;78.58;99685.01;477142;1191;141865;-64
2021/09/25 19:39:01;;;;;;;11.70;10.30;;;;;;;15.50;78.76;99691.96;476661;1191;142446;-64
2021/09/25 19:49:08;;;;;;;11.60;9.40;;;;;;;15.47;79.02;99694.13;466267;1190;154132;-62
2021/09/25 19:59:18;;;;;;;13.80;11.50;;;;;;;15.44;79.17;99696.30;468904;1190;10002907;-64
2021/09/25 20:09:24;;;;;;;13.30;11.40;;;;;;;15.46;79.30;99699.16;475442;1190;141959;-62
2021/09/25 20:19:31;;;;;;;10.00;9.10;;;;;;;15.49;79.41;99709.02;463012;1190;143407;-63
2021/09/25 20:29:38;;;;;;;10.50;9.40;;;;;;;15.49;79.57;99716.59;472018;1190;142202;-63
2021/09/25 20:39:44;;;;;;;10.10;9.10;;;;;;;15.46;79.74;99716.06;464066;1190;140911;-63
2021/09/25 20:49:50;;;;;;;11.60;10.50;;;;;;;15.46;79.89;99726.34;477631;1190;140970;-63
2021/09/25 20:59:56;;;;;;;11.70;10.60;;;;;;;15.47;80.04;99727.47;476773;1190;141666;-64
2021/09/25 21:10:02;;;;;;;11.70;10.50;;;;;;;15.51;80.10;99725.23;477107;1191;141901;-64
2021/09/25 21:20:12;;;;;;;12.90;11.20;;;;;;;15.52;80.24;99733.95;467149;1192;142112;-63
2021/09/25 21:30:19;;;;;;;13.10;11.50;;;;;;;15.51;80.29;99741.42;466159;1191;141154;-63
2021/09/25 21:40:25;;;;;;;14.10;12.60;;;;;;;15.48;80.43;99740.60;467505;1190;141784;-63
2021/09/25 21:50:32;;;;;;;17.30;14.00;;;;;;;15.47;80.48;99742.70;463913;1192;142789;-64
2021/09/25 22:00:58;;;;;;;23.40;21.20;;;;;;;15.44;80.66;99747.72;468745;1192;142363;-63
2021/09/25 22:11:08;;;;;;;24.60;22.20;;;;;;;15.38;80.83;99754.88;463234;1192;142446;-65
2021/09/25 22:21:17;;;;;;;18.50;16.80;;;;;;;15.32;80.99;99760.98;462516;1192;143841;-64
2021/09/25 22:31:23;;;;;;;19.10;17.30;;;;;;;15.24;81.16;99774.85;462621;1191;141673;-62
2021/09/25 22:41:31;;;;;;;16.10;14.50;;;;;;;15.15;81.38;99784.38;461020;1184;141591;-70
2021/09/25 22:51:37;;;;;;;16.80;15.10;;;;;;;15.06;81.61;99782.25;461669;1192;142063;-71
2021/09/25 23:01:43;;;;;;;16.60;14.60;;;;;;;14.98;81.70;99786.08;462132;1191;142187;-70
2021/09/25 23:11:49;;;;;;;18.80;16.80;;;;;;;14.90;82.00;99796.21;460681;1192;142404;-69
2021/09/25 23:21:55;;;;;;;14.30;12.90;;;;;;;14.89;82.01;99804.79;461901;1192;141550;-70
2021/09/25 23:32:05;;;;;;;16.80;15.10;;;;;;;14.84;82.03;99811.26;461525;1184;141264;-68
2021/09/25 23:42:11;;;;;;;15.40;13.80;;;;;;;14.81;82.30;99813.85;462633;1190;142067;-69
2021/09/25 23:52:17;;;;;;;15.20;13.70;;;;;;;14.82;82.52;99817.09;462063;1190;141643;-70
